This is the latest recevied weather packets stored in our database for station/object K5NOC-12. If no packets are shown the sender has not sent any weather packets the latest 10 day(s).
| Time | Temp. | Humidity | Pressure | Rain* | Wind** | Luminosity | Snow |
|---|---|---|---|---|---|---|---|
| 1787824112 | 25° C | 60% | 1022.6 hPa | 0 mm | - | - | - |
| 1787823211 | 25.56° C | 57% | 1022.5 hPa | 0 mm | - | - | - |
| 1787822311 | 25.56° C | 57% | 1022.2 hPa | 0 mm | - | - | - |
| 1787821411 | 25° C | 58% | 1022.2 hPa | 0 mm | - | - | - |
| 1787820511 | 25° C | 58% | 1022.1 hPa | 0 mm | - | - | - |
| 1787819611 | 25° C | 58% | 1022 hPa | 0 mm | - | - | - |
| 1787818710 | 25° C | 58% | 1022.3 hPa | 0 mm | - | - | - |
| 1787817810 | 25° C | 60% | 1022.3 hPa | 0 mm | - | - | - |
| 1787816910 | 25.56° C | 58% | 1022.6 hPa | 0 mm | - | - | - |
| 1787816010 | 25.56° C | 57% | 1022.5 hPa | 0 mm | - | - | - |
| 1787815110 | 25.56° C | 56% | 1022.7 hPa | 0 mm | - | - | - |
| 1787814210 | 25.56° C | 58% | 1022.5 hPa | 0 mm | - | - | - |
| 1787813310 | 25° C | 60% | 1022.5 hPa | 0 mm | - | - | - |
| 1787812410 | 25° C | 61% | 1022.2 hPa | 0 mm | - | - | - |
| 1787811509 | 25° C | 60% | 1022.2 hPa | 0 mm | - | - | - |
| 1787810609 | 25.56° C | 59% | 1022 hPa | 0 mm | - | - | - |
| 1787809709 | 25.56° C | 59% | 1022.2 hPa | 0 mm | - | - | - |
| 1787808809 | 25.56° C | 59% | 1022 hPa | 0 mm | - | - | - |
| 1787807909 | 26.11° C | 57% | 1022 hPa | 0 mm | - | - | - |
| 1787807008 | 26.11° C | 54% | 1022 hPa | 0 mm | - | - | - |
| 1787806108 | 26.67° C | 53% | 1021.9 hPa | 0 mm | - | - | - |
| 1787805208 | 27.22° C | 52% | 1022 hPa | 0 mm | - | - | - |
| 1787804308 | 27.22° C | 54% | 1022 hPa | 0 mm | - | - | - |
| 1787803408 | 27.22° C | 55% | 1022 hPa | 0 mm | - | - | - |
| 1787802508 | 27.22° C | 54% | 1022.2 hPa | 0 mm | - | - | - |
* Rain latest hour (hover to see other rain measurements)
** Current wind speed in m/s (hover to see current wind gust speed)